createdAt,value
2019-05-18T00:03:23.058Z,64.00
2019-05-18T00:08:28.042Z,65.50
2019-05-18T00:13:33.587Z,64.20
2019-05-18T00:18:38.792Z,65.50
2019-05-18T00:23:43.940Z,65.50
2019-05-18T00:28:48.763Z,63.20
2019-05-18T00:33:53.732Z,65.10
2019-05-18T00:38:59.917Z,65.30
2019-05-18T00:44:04.912Z,65.80
2019-05-18T00:49:09.185Z,66.40
2019-05-18T00:54:15.005Z,65.90
2019-05-18T00:59:20.124Z,66.80
2019-05-18T01:04:25.702Z,66.80
2019-05-18T01:09:31.211Z,66.10
2019-05-18T01:14:36.477Z,66.80
2019-05-18T01:19:42.118Z,68.40
2019-05-18T01:24:47.265Z,68.50
2019-05-18T01:29:52.973Z,69.80
2019-05-18T01:34:58.321Z,70.30
2019-05-18T01:40:04.779Z,69.30
2019-05-18T01:45:16.929Z,69.50
2019-05-18T01:50:17.143Z,69.90
2019-05-18T01:55:22.750Z,70.00
2019-05-18T02:00:27.335Z,70.80
2019-05-18T02:05:32.464Z,72.10
2019-05-18T02:10:37.956Z,71.80
2019-05-18T02:15:43.311Z,72.40
2019-05-18T02:20:48.298Z,73.00
2019-05-18T02:25:52.242Z,73.00
2019-05-18T02:30:56.238Z,72.90
2019-05-18T02:36:00.413Z,72.80
2019-05-18T02:41:04.819Z,72.60
2019-05-18T02:46:08.200Z,72.60
2019-05-18T02:51:12.027Z,73.60
2019-05-18T02:56:15.484Z,73.10
2019-05-18T03:01:20.196Z,73.40
2019-05-18T03:06:23.621Z,74.10
2019-05-18T03:11:27.015Z,74.80
2019-05-18T03:16:31.263Z,74.30
2019-05-18T03:21:35.760Z,74.70
2019-05-18T03:26:40.343Z,75.30
2019-05-18T03:31:44.715Z,76.70
2019-05-18T03:36:49.040Z,76.70
2019-05-18T03:41:53.157Z,76.40
2019-05-18T03:46:57.287Z,75.50
2019-05-18T03:52:01.431Z,76.30
2019-05-18T03:57:05.738Z,76.80
2019-05-18T04:02:10.818Z,77.10
2019-05-18T04:07:15.819Z,77.40
2019-05-18T04:12:21.033Z,77.80
2019-05-18T04:17:26.119Z,78.30
2019-05-18T04:22:31.275Z,78.30
2019-05-18T04:27:36.752Z,78.10
2019-05-18T04:32:42.196Z,78.90
2019-05-18T04:37:47.084Z,78.50
2019-05-18T04:42:53.391Z,78.80
2019-05-18T04:47:58.503Z,78.60
2019-05-18T04:53:03.982Z,78.30
2019-05-18T04:58:09.052Z,81.00
2019-05-18T05:03:14.176Z,81.10
2019-05-18T05:08:19.582Z,81.70
2019-05-18T05:13:24.881Z,83.10
2019-05-18T05:18:31.876Z,83.30
2019-05-18T05:23:37.077Z,83.30
2019-05-18T05:28:41.980Z,80.30
2019-05-18T05:33:47.188Z,81.90
2019-05-18T05:38:52.227Z,80.70
2019-05-18T05:43:58.585Z,78.20
2019-05-18T05:49:03.999Z,79.20
2019-05-18T05:54:09.918Z,79.80
2019-05-18T05:59:15.495Z,80.00
2019-05-18T06:04:20.678Z,77.40
2019-05-18T06:09:26.211Z,78.40
2019-05-18T06:14:31.883Z,76.80
2019-05-18T06:19:36.999Z,77.10
2019-05-18T06:24:42.576Z,75.80
2019-05-18T06:29:47.758Z,76.20
2019-05-18T06:34:53.671Z,76.70
2019-05-18T06:39:58.952Z,77.90
2019-05-18T06:45:05.349Z,74.30
2019-05-18T06:50:12.755Z,74.00
2019-05-18T06:55:19.166Z,73.80
2019-05-18T07:00:24.559Z,72.40
2019-05-18T07:05:29.595Z,73.30
2019-05-18T07:10:35.287Z,69.40
2019-05-18T07:15:39.210Z,67.30
2019-05-18T07:20:43.449Z,63.90
2019-05-18T07:25:47.963Z,68.70
2019-05-18T07:30:52.377Z,65.80
2019-05-18T07:35:56.757Z,66.50
2019-05-18T07:41:00.352Z,61.90
2019-05-18T07:46:08.748Z,63.20
2019-05-18T07:51:13.222Z,61.70
2019-05-18T07:56:16.775Z,64.50
2019-05-18T08:01:20.652Z,65.80
2019-05-18T08:06:25.205Z,64.40
2019-05-18T08:11:30.337Z,64.40
2019-05-18T08:16:34.974Z,63.60
2019-05-18T08:21:52.283Z,61.40
2019-05-18T08:26:45.834Z,62.30
2019-05-18T08:31:50.400Z,60.60
2019-05-18T08:36:54.646Z,60.90
2019-05-18T08:41:58.997Z,60.20
2019-05-18T08:47:03.548Z,57.40
2019-05-18T08:52:08.832Z,57.40
2019-05-18T08:57:14.831Z,59.00
2019-05-18T09:02:20.062Z,57.90
2019-05-18T09:07:25.485Z,59.60
2019-05-18T09:12:31.998Z,59.10
2019-05-18T09:17:37.803Z,60.50
2019-05-18T09:22:43.150Z,58.40
2019-05-18T09:27:49.284Z,60.10
2019-05-18T09:32:54.516Z,60.30
2019-05-18T09:38:01.745Z,59.30
2019-05-18T09:43:07.504Z,59.50
2019-05-18T09:48:13.674Z,57.20
2019-05-18T09:53:18.689Z,59.80
2019-05-18T09:58:23.939Z,58.30
2019-05-18T10:03:29.790Z,57.50
2019-05-18T10:08:35.120Z,58.10
2019-05-18T10:13:40.334Z,52.40
2019-05-18T10:18:45.735Z,55.50
2019-05-18T10:23:50.793Z,51.10
2019-05-18T10:28:57.235Z,50.40
2019-05-18T10:34:02.636Z,50.70
2019-05-18T10:39:08.846Z,49.10
2019-05-18T10:44:14.507Z,48.00
2019-05-18T10:49:19.774Z,48.70
2019-05-18T10:54:25.445Z,46.90
2019-05-18T10:59:30.985Z,48.90
2019-05-18T11:04:36.735Z,47.60
2019-05-18T11:09:42.474Z,49.70
2019-05-18T11:14:47.673Z,47.30
2019-05-18T11:19:52.949Z,47.80
2019-05-18T11:24:58.434Z,47.80
2019-05-18T11:30:05.770Z,45.20
2019-05-18T11:35:11.724Z,39.90
2019-05-18T11:40:18.110Z,38.70
2019-05-18T11:45:24.750Z,34.20
2019-05-18T11:50:30.372Z,39.60
2019-05-18T11:55:35.830Z,38.70
2019-05-18T12:00:41.173Z,36.60
2019-05-18T12:05:45.646Z,37.20
2019-05-18T12:10:49.963Z,37.10
2019-05-18T12:15:54.231Z,36.50
2019-05-18T12:21:03.619Z,38.50
2019-05-18T12:26:09.063Z,38.60
2019-05-18T12:31:13.013Z,37.30
2019-05-18T12:36:16.645Z,36.30
2019-05-18T12:41:30.036Z,36.80
2019-05-18T12:46:34.410Z,40.10
2019-05-18T12:51:39.191Z,37.50
2019-05-18T12:56:44.056Z,37.10
2019-05-18T13:01:48.504Z,39.80
2019-05-18T13:06:52.909Z,44.10
2019-05-18T13:11:58.222Z,49.90
2019-05-18T13:17:13.425Z,51.90
2019-05-18T13:22:24.723Z,56.20
2019-05-18T13:27:48.401Z,58.60
2019-05-18T13:33:11.026Z,58.60
2019-05-18T13:38:20.331Z,59.20
2019-05-18T13:43:29.885Z,67.50
2019-05-18T13:48:43.660Z,67.70
2019-05-18T13:53:47.705Z,72.20
2019-05-18T13:58:57.326Z,75.40
2019-05-18T14:04:06.216Z,76.30
2019-05-18T14:09:10.755Z,74.20
2019-05-18T14:14:16.094Z,78.90
2019-05-18T14:19:22.859Z,81.90
2019-05-18T14:24:28.385Z,85.00
2019-05-18T14:29:33.503Z,81.00
2019-05-18T14:34:38.624Z,83.00
2019-05-18T14:39:44.501Z,81.70
2019-05-18T16:14:41.231Z,84.60
2019-05-18T16:36:14.047Z,74.90
2019-05-18T16:41:18.009Z,83.40
2019-05-18T16:46:23.013Z,86.50
2019-05-18T16:51:26.564Z,85.40
2019-05-18T16:56:35.318Z,91.30
2019-05-18T17:01:38.989Z,87.60
2019-05-18T17:06:43.407Z,87.30
2019-05-18T17:11:48.243Z,86.40
2019-05-18T17:16:52.732Z,86.60
2019-05-18T17:21:57.086Z,71.20
2019-05-18T17:27:01.397Z,75.40
2019-05-18T17:32:06.059Z,74.80
2019-05-18T17:37:10.639Z,72.80
2019-05-18T17:42:20.059Z,73.40
2019-05-18T17:47:25.003Z,77.10
2019-05-18T17:52:30.536Z,77.20
2019-05-18T17:57:34.888Z,76.70
2019-05-18T18:02:39.224Z,74.80
2019-05-18T18:07:44.318Z,75.40
2019-05-18T18:12:49.955Z,69.70
2019-05-18T18:17:55.160Z,73.00
2019-05-18T18:23:00.211Z,72.60
2019-05-18T18:28:06.351Z,76.30
2019-05-18T18:33:12.159Z,72.00
2019-05-18T18:38:18.449Z,69.50
2019-05-18T18:43:24.316Z,71.70
2019-05-18T18:48:30.257Z,71.20
2019-05-18T18:53:35.372Z,73.60
2019-05-18T18:58:40.419Z,75.30
2019-05-18T19:03:46.651Z,77.00
2019-05-18T19:08:52.083Z,74.20
2019-05-18T19:13:57.347Z,75.10
2019-05-18T19:19:02.970Z,74.00
2019-05-18T19:24:09.049Z,74.40
2019-05-18T19:29:14.923Z,74.50
2019-05-18T19:34:20.128Z,75.40
2019-05-18T19:39:26.562Z,75.70
2019-05-18T19:44:32.371Z,78.70
2019-05-18T19:49:37.605Z,78.20
2019-05-18T19:54:43.018Z,82.60
2019-05-18T19:59:48.081Z,85.20
2019-05-18T20:05:06.720Z,85.90
2019-05-18T20:10:00.394Z,85.50
2019-05-18T20:15:09.407Z,87.30
2019-05-18T20:20:13.906Z,88.60
2019-05-18T20:25:19.536Z,89.10
2019-05-18T20:30:25.147Z,89.30
2019-05-18T20:35:30.897Z,89.20
2019-05-18T20:40:37.626Z,89.90
2019-05-18T20:45:43.044Z,88.90
2019-05-18T20:50:47.950Z,90.50
2019-05-18T20:55:53.466Z,90.30
2019-05-18T21:00:58.255Z,88.90
2019-05-18T21:06:03.033Z,88.70
2019-05-18T21:11:07.583Z,86.00
2019-05-18T21:16:13.991Z,87.00
2019-05-18T21:21:24.670Z,87.50
2019-05-18T21:26:25.329Z,88.90
2019-05-18T21:31:30.295Z,89.00
2019-05-18T21:36:34.897Z,87.20
2019-05-18T21:41:39.649Z,88.40
2019-05-18T21:46:44.602Z,91.40
2019-05-18T21:51:50.157Z,91.50
2019-05-18T21:56:54.523Z,91.60
2019-05-18T22:01:58.704Z,92.60
2019-05-18T22:07:03.029Z,92.80
2019-05-18T22:12:06.694Z,93.00
2019-05-18T22:17:11.764Z,93.30
2019-05-18T22:22:17.458Z,93.40
2019-05-18T22:27:23.101Z,95.20
2019-05-18T22:32:27.352Z,93.60
2019-05-18T22:37:32.275Z,94.10
2019-05-18T22:42:38.450Z,94.90
2019-05-18T22:47:43.834Z,94.50
2019-05-18T22:52:49.000Z,94.50
2019-05-18T22:57:54.171Z,93.30
2019-05-18T23:02:59.061Z,94.90
2019-05-18T23:08:03.549Z,94.40
2019-05-18T23:13:09.159Z,93.70
2019-05-18T23:18:14.717Z,94.10
2019-05-18T23:23:20.395Z,93.00
2019-05-18T23:28:25.548Z,94.60
2019-05-18T23:33:30.582Z,94.90
2019-05-18T23:38:36.045Z,94.20
2019-05-18T23:43:41.510Z,93.70
2019-05-18T23:48:46.790Z,94.80
2019-05-18T23:53:53.775Z,94.60
2019-05-18T23:58:58.972Z,94.60
